sensor_id;sensor_type;location;lat;lon;timestamp;pressure;altitude;pressure_sealevel;temperature;humidity
17607;BME280;69222;52.242;20.980;2023-07-30T00:02:09;99406.75;;;18.48;100.00
17607;BME280;69222;52.242;20.980;2023-07-30T00:04:37;99401.47;;;18.50;100.00
17607;BME280;69222;52.242;20.980;2023-07-30T00:07:07;99395.25;;;18.52;100.00
17607;BME280;69222;52.242;20.980;2023-07-30T00:09:38;99405.44;;;18.57;100.00
17607;BME280;69222;52.242;20.980;2023-07-30T00:12:07;99394.22;;;18.55;100.00
17607;BME280;69222;52.242;20.980;2023-07-30T00:14:35;99399.44;;;18.55;100.00
17607;BME280;69222;52.242;20.980;2023-07-30T00:17:04;99404.59;;;18.56;100.00
17607;BME280;69222;52.242;20.980;2023-07-30T00:19:34;99399.44;;;18.55;100.00
17607;BME280;69222;52.242;20.980;2023-07-30T00:22:02;99400.38;;;18.54;100.00
17607;BME280;69222;52.242;20.980;2023-07-30T00:24:30;99412.66;;;18.52;100.00
17607;BME280;69222;52.242;20.980;2023-07-30T00:26:58;99415.63;;;18.46;99.83
17607;BME280;69222;52.242;20.980;2023-07-30T00:29:26;99408.88;;;18.42;100.00
17607;BME280;69222;52.242;20.980;2023-07-30T00:31:53;99420.22;;;18.41;100.00
17607;BME280;69222;52.242;20.980;2023-07-30T00:34:22;99420.41;;;18.38;100.00
17607;BME280;69222;52.242;20.980;2023-07-30T00:36:51;99445.47;;;18.40;100.00
17607;BME280;69222;52.242;20.980;2023-07-30T00:39:19;99438.66;;;18.38;100.00
17607;BME280;69222;52.242;20.980;2023-07-30T00:41:47;99438.81;;;18.34;100.00
17607;BME280;69222;52.242;20.980;2023-07-30T00:44:15;99437.22;;;18.32;100.00
17607;BME280;69222;52.242;20.980;2023-07-30T00:46:43;99437.13;;;18.33;100.00
17607;BME280;69222;52.242;20.980;2023-07-30T00:49:11;99433.69;;;18.33;100.00
17607;BME280;69222;52.242;20.980;2023-07-30T00:51:41;99438.22;;;18.29;100.00
17607;BME280;69222;52.242;20.980;2023-07-30T00:54:11;99445.44;;;18.24;100.00
17607;BME280;69222;52.242;20.980;2023-07-30T00:56:44;99442.84;;;18.24;100.00
17607;BME280;69222;52.242;20.980;2023-07-30T00:59:13;99443.78;;;18.23;100.00
17607;BME280;69222;52.242;20.980;2023-07-30T01:01:41;99446.44;;;18.22;100.00
17607;BME280;69222;52.242;20.980;2023-07-30T01:04:10;99442.06;;;18.22;100.00
17607;BME280;69222;52.242;20.980;2023-07-30T01:06:38;99447.47;;;18.19;100.00
17607;BME280;69222;52.242;20.980;2023-07-30T01:09:06;99434.59;;;18.16;100.00
17607;BME280;69222;52.242;20.980;2023-07-30T01:11:36;99448.38;;;18.18;100.00
17607;BME280;69222;52.242;20.980;2023-07-30T01:14:05;99439.78;;;18.16;100.00
17607;BME280;69222;52.242;20.980;2023-07-30T01:16:33;99449.44;;;18.14;100.00
17607;BME280;69222;52.242;20.980;2023-07-30T01:19:02;99453.00;;;18.13;100.00
17607;BME280;69222;52.242;20.980;2023-07-30T01:21:33;99455.75;;;18.10;100.00
17607;BME280;69222;52.242;20.980;2023-07-30T01:24:01;99449.94;;;18.05;100.00
17607;BME280;69222;52.242;20.980;2023-07-30T01:26:33;99451.53;;;18.07;100.00
17607;BME280;69222;52.242;20.980;2023-07-30T01:29:08;99463.03;;;18.03;99.92
17607;BME280;69222;52.242;20.980;2023-07-30T01:31:39;99456.31;;;17.99;100.00
17607;BME280;69222;52.242;20.980;2023-07-30T01:34:09;99452.09;;;17.97;100.00
17607;BME280;69222;52.242;20.980;2023-07-30T01:36:40;99450.09;;;18.02;100.00
17607;BME280;69222;52.242;20.980;2023-07-30T01:39:10;99455.22;;;18.03;100.00
17607;BME280;69222;52.242;20.980;2023-07-30T01:41:39;99455.47;;;17.99;100.00
17607;BME280;69222;52.242;20.980;2023-07-30T01:44:07;99455.47;;;17.99;100.00
17607;BME280;69222;52.242;20.980;2023-07-30T01:46:35;99458.22;;;17.96;100.00
17607;BME280;69222;52.242;20.980;2023-07-30T01:49:03;99453.09;;;17.94;100.00
17607;BME280;69222;52.242;20.980;2023-07-30T01:51:31;99457.63;;;17.91;100.00
17607;BME280;69222;52.242;20.980;2023-07-30T01:54:00;99456.69;;;17.92;100.00
17607;BME280;69222;52.242;20.980;2023-07-30T01:56:28;99452.31;;;17.92;100.00
17607;BME280;69222;52.242;20.980;2023-07-30T01:58:56;99454.88;;;17.94;100.00
17607;BME280;69222;52.242;20.980;2023-07-30T02:01:24;99459.06;;;17.96;100.00
17607;BME280;69222;52.242;20.980;2023-07-30T02:03:52;99469.44;;;17.98;100.00
17607;BME280;69222;52.242;20.980;2023-07-30T02:06:20;99465.06;;;17.98;100.00
17607;BME280;69222;52.242;20.980;2023-07-30T02:08:48;99468.41;;;18.00;100.00
17607;BME280;69222;52.242;20.980;2023-07-30T02:11:17;99473.63;;;18.00;100.00
17607;BME280;69222;52.242;20.980;2023-07-30T02:13:45;99471.09;;;17.99;100.00
17607;BME280;69222;52.242;20.980;2023-07-30T02:16:15;99479.00;;;17.97;100.00
17607;BME280;69222;52.242;20.980;2023-07-30T02:18:44;99482.84;;;17.90;99.88
17607;BME280;69222;52.242;20.980;2023-07-30T02:21:12;99484.91;;;17.83;99.56
17607;BME280;69222;52.242;20.980;2023-07-30T02:23:40;99480.09;;;17.76;99.81
17607;BME280;69222;52.242;20.980;2023-07-30T02:26:08;99484.47;;;17.75;100.00
17607;BME280;69222;52.242;20.980;2023-07-30T02:28:37;99488.66;;;17.78;99.76
17607;BME280;69222;52.242;20.980;2023-07-30T02:31:05;99483.53;;;17.76;99.53
17607;BME280;69222;52.242;20.980;2023-07-30T02:33:33;99489.34;;;17.81;98.63
17607;BME280;69222;52.242;20.980;2023-07-30T02:36:01;99487.75;;;17.79;98.60
17607;BME280;69222;52.242;20.980;2023-07-30T02:38:29;99486.84;;;17.80;98.47
17607;BME280;69222;52.242;20.980;2023-07-30T02:40:57;99486.69;;;17.83;97.98
17607;BME280;69222;52.242;20.980;2023-07-30T02:43:25;99495.25;;;17.85;97.66
17607;BME280;69222;52.242;20.980;2023-07-30T02:45:54;99492.44;;;17.90;97.70
17607;BME280;69222;52.242;20.980;2023-07-30T02:48:22;99489.84;;;17.90;96.74
17607;BME280;69222;52.242;20.980;2023-07-30T02:50:50;99490.59;;;17.92;97.54
17607;BME280;69222;52.242;20.980;2023-07-30T02:53:19;99493.63;;;18.00;97.29
17607;BME280;69222;52.242;20.980;2023-07-30T02:55:47;99493.34;;;18.06;97.04
17607;BME280;69222;52.242;20.980;2023-07-30T02:58:15;99487.97;;;18.09;97.05
17607;BME280;69222;52.242;20.980;2023-07-30T03:00:43;99478.28;;;18.11;96.78
17607;BME280;69222;52.242;20.980;2023-07-30T03:03:12;99489.41;;;18.15;96.97
17607;BME280;69222;52.242;20.980;2023-07-30T03:05:41;99490.19;;;18.17;95.87
17607;BME280;69222;52.242;20.980;2023-07-30T03:08:10;99488.25;;;18.20;95.76
17607;BME280;69222;52.242;20.980;2023-07-30T03:10:37;99485.66;;;18.20;95.84
17607;BME280;69222;52.242;20.980;2023-07-30T03:13:05;99492.38;;;18.24;95.78
17607;BME280;69222;52.242;20.980;2023-07-30T03:15:33;99494.75;;;18.29;95.37
17607;BME280;69222;52.242;20.980;2023-07-30T03:18:01;99503.34;;;18.31;94.34
17607;BME280;69222;52.242;20.980;2023-07-30T03:20:31;99503.09;;;18.35;93.93
17607;BME280;69222;52.242;20.980;2023-07-30T03:22:59;99505.63;;;18.37;93.96
17607;BME280;69222;52.242;20.980;2023-07-30T03:25:27;99506.31;;;18.41;93.07
17607;BME280;69222;52.242;20.980;2023-07-30T03:27:55;99509.59;;;18.44;92.31
17607;BME280;69222;52.242;20.980;2023-07-30T03:30:23;99507.06;;;18.43;91.44
17607;BME280;69222;52.242;20.980;2023-07-30T03:32:51;99507.91;;;18.43;92.37
17607;BME280;69222;52.242;20.980;2023-07-30T03:35:19;99500.88;;;18.45;92.03
17607;BME280;69222;52.242;20.980;2023-07-30T03:37:49;99501.69;;;18.46;91.55
17607;BME280;69222;52.242;20.980;2023-07-30T03:40:17;99509.38;;;18.49;91.44
17607;BME280;69222;52.242;20.980;2023-07-30T03:42:45;99511.88;;;18.50;91.68
17607;BME280;69222;52.242;20.980;2023-07-30T03:45:13;99507.50;;;18.51;90.93
17607;BME280;69222;52.242;20.980;2023-07-30T03:47:41;99513.50;;;18.53;90.78
17607;BME280;69222;52.242;20.980;2023-07-30T03:50:09;99517.69;;;18.55;90.33
17607;BME280;69222;52.242;20.980;2023-07-30T03:52:37;99518.56;;;18.56;90.26
17607;BME280;69222;52.242;20.980;2023-07-30T03:55:07;99516.69;;;18.58;90.40
17607;BME280;69222;52.242;20.980;2023-07-30T03:57:35;99528.66;;;18.62;90.02
17607;BME280;69222;52.242;20.980;2023-07-30T04:00:04;99523.44;;;18.62;89.31
17607;BME280;69222;52.242;20.980;2023-07-30T04:02:33;99517.53;;;18.58;89.56
17607;BME280;69222;52.242;20.980;2023-07-30T04:05:01;99520.94;;;18.61;89.64
17607;BME280;69222;52.242;20.980;2023-07-30T04:07:29;99521.09;;;18.57;89.24
17607;BME280;69222;52.242;20.980;2023-07-30T04:09:57;99532.50;;;18.55;89.25
17607;BME280;69222;52.242;20.980;2023-07-30T04:12:26;99529.91;;;18.55;89.20
17607;BME280;69222;52.242;20.980;2023-07-30T04:14:54;99526.97;;;18.61;89.13
17607;BME280;69222;52.242;20.980;2023-07-30T04:17:22;99540.47;;;18.69;89.05
17607;BME280;69222;52.242;20.980;2023-07-30T04:19:50;99541.00;;;18.76;87.79
17607;BME280;69222;52.242;20.980;2023-07-30T04:22:18;99540.84;;;18.79;87.47
17607;BME280;69222;52.242;20.980;2023-07-30T04:24:46;99541.84;;;18.76;87.10
17607;BME280;69222;52.242;20.980;2023-07-30T04:27:14;99548.75;;;18.77;87.18
17607;BME280;69222;52.242;20.980;2023-07-30T04:29:44;99554.22;;;18.73;86.90
17607;BME280;69222;52.242;20.980;2023-07-30T04:32:12;99564.34;;;18.62;86.14
17607;BME280;69222;52.242;20.980;2023-07-30T04:34:40;99569.56;;;18.62;86.49
17607;BME280;69222;52.242;20.980;2023-07-30T04:37:08;99574.78;;;18.62;86.60
17607;BME280;69222;52.242;20.980;2023-07-30T04:39:36;99580.00;;;18.62;86.41
17607;BME280;69222;52.242;20.980;2023-07-30T04:42:05;99573.94;;;18.61;86.22
17607;BME280;69222;52.242;20.980;2023-07-30T04:44:33;99579.25;;;18.59;85.98
17607;BME280;69222;52.242;20.980;2023-07-30T04:47:02;99578.25;;;18.62;85.73
17607;BME280;69222;52.242;20.980;2023-07-30T04:49:30;99586.06;;;18.62;85.79
17607;BME280;69222;52.242;20.980;2023-07-30T04:51:58;99584.22;;;18.64;85.79
17607;BME280;69222;52.242;20.980;2023-07-30T04:54:28;99586.75;;;18.66;86.10
17607;BME280;69222;52.242;20.980;2023-07-30T04:56:56;99591.13;;;18.65;85.38
17607;BME280;69222;52.242;20.980;2023-07-30T04:59:24;99594.50;;;18.67;85.66
17607;BME280;69222;52.242;20.980;2023-07-30T05:01:53;99597.97;;;18.68;85.03
17607;BME280;69222;52.242;20.980;2023-07-30T05:04:24;99594.66;;;18.64;85.05
17607;BME280;69222;52.242;20.980;2023-07-30T05:06:54;99598.03;;;18.66;85.11
17607;BME280;69222;52.242;20.980;2023-07-30T05:09:25;99604.03;;;18.68;84.49
17607;BME280;69222;52.242;20.980;2023-07-30T05:11:54;99609.66;;;18.61;84.32
17607;BME280;69222;52.242;20.980;2023-07-30T05:14:23;99610.63;;;18.58;84.33
17607;BME280;69222;52.242;20.980;2023-07-30T05:16:51;99610.31;;;18.64;84.03
17607;BME280;69222;52.242;20.980;2023-07-30T05:19:19;99613.53;;;18.69;83.42
17607;BME280;69222;52.242;20.980;2023-07-30T05:21:48;99620.16;;;18.76;82.65
17607;BME280;69222;52.242;20.980;2023-07-30T05:24:16;99626.91;;;18.80;80.53
17607;BME280;69222;52.242;20.980;2023-07-30T05:26:44;99621.38;;;18.87;80.06
17607;BME280;69222;52.242;20.980;2023-07-30T05:29:12;99625.78;;;19.02;79.23
17607;BME280;69222;52.242;20.980;2023-07-30T05:31:40;99637.28;;;19.15;79.07
17607;BME280;69222;52.242;20.980;2023-07-30T05:34:08;99633.22;;;19.25;78.48
17607;BME280;69222;52.242;20.980;2023-07-30T05:36:36;99637.19;;;19.33;78.31
17607;BME280;69222;52.242;20.980;2023-07-30T05:39:05;99640.66;;;19.49;78.55
17607;BME280;69222;52.242;20.980;2023-07-30T05:41:33;99640.34;;;19.71;77.70
17607;BME280;69222;52.242;20.980;2023-07-30T05:44:02;99644.00;;;20.44;78.17
17607;BME280;69222;52.242;20.980;2023-07-30T05:46:30;99640.44;;;22.01;75.48
17607;BME280;69222;52.242;20.980;2023-07-30T05:48:58;99641.09;;;24.54;62.57
17607;BME280;69222;52.242;20.980;2023-07-30T05:51:28;99637.47;;;25.13;56.39
17607;BME280;69222;52.242;20.980;2023-07-30T05:53:56;99632.75;;;24.71;56.44
17607;BME280;69222;52.242;20.980;2023-07-30T05:56:26;99643.69;;;23.83;59.68
17607;BME280;69222;52.242;20.980;2023-07-30T05:58:54;99640.28;;;23.08;62.40
17607;BME280;69222;52.242;20.980;2023-07-30T06:01:22;99644.66;;;22.56;64.16
17607;BME280;69222;52.242;20.980;2023-07-30T06:03:50;99650.72;;;22.04;66.30
17607;BME280;69222;52.242;20.980;2023-07-30T06:06:18;99658.94;;;21.58;67.35
17607;BME280;69222;52.242;20.980;2023-07-30T06:08:54;99658.13;;;21.15;67.99
17607;BME280;69222;52.242;20.980;2023-07-30T06:11:23;99660.63;;;21.59;69.68
17607;BME280;69222;52.242;20.980;2023-07-30T06:13:52;99649.69;;;23.36;61.04
17607;BME280;69222;52.242;20.980;2023-07-30T06:16:20;99654.03;;;25.69;54.29
17607;BME280;69222;52.242;20.980;2023-07-30T06:18:48;99636.69;;;27.84;46.43
17607;BME280;69222;52.242;20.980;2023-07-30T06:21:16;99649.50;;;29.87;41.83
17607;BME280;69222;52.242;20.980;2023-07-30T06:23:45;99643.06;;;31.03;38.70
17607;BME280;69222;52.242;20.980;2023-07-30T06:26:13;99642.22;;;31.02;37.78
17607;BME280;69222;52.242;20.980;2023-07-30T06:28:41;99645.56;;;29.91;39.27
17607;BME280;69222;52.242;20.980;2023-07-30T06:31:10;99653.81;;;27.90;43.38
17607;BME280;69222;52.242;20.980;2023-07-30T06:33:38;99657.50;;;25.81;48.54
17607;BME280;69222;52.242;20.980;2023-07-30T06:36:06;99667.22;;;24.33;52.94
17607;BME280;69222;52.242;20.980;2023-07-30T06:38:34;99668.50;;;23.43;56.91
17607;BME280;69222;52.242;20.980;2023-07-30T06:41:04;99657.66;;;23.47;57.73
17607;BME280;69222;52.242;20.980;2023-07-30T06:43:33;99661.13;;;24.79;54.08
17607;BME280;69222;52.242;20.980;2023-07-30T06:46:01;99654.25;;;26.21;50.80
17607;BME280;69222;52.242;20.980;2023-07-30T06:48:33;99654.75;;;25.83;49.60
17607;BME280;69222;52.242;20.980;2023-07-30T06:51:01;99665.81;;;24.75;52.15
17607;BME280;69222;52.242;20.980;2023-07-30T06:53:29;99659.16;;;25.93;52.01
17607;BME280;69222;52.242;20.980;2023-07-30T06:55:57;99658.97;;;27.82;46.15
17607;BME280;69222;52.242;20.980;2023-07-30T06:58:25;99667.41;;;27.66;43.75
17607;BME280;69222;52.242;20.980;2023-07-30T07:00:53;99665.78;;;27.34;47.22
17607;BME280;69222;52.242;20.980;2023-07-30T07:03:22;99665.97;;;29.07;41.46
17607;BME280;69222;52.242;20.980;2023-07-30T07:05:54;99657.06;;;28.89;40.54
17607;BME280;69222;52.242;20.980;2023-07-30T07:08:23;99660.00;;;29.05;41.29
17607;BME280;69222;52.242;20.980;2023-07-30T07:10:51;99658.28;;;30.41;37.26
17607;BME280;69222;52.242;20.980;2023-07-30T07:13:19;99659.25;;;30.58;37.03
17607;BME280;69222;52.242;20.980;2023-07-30T07:15:47;99658.66;;;29.47;38.38
17607;BME280;69222;52.242;20.980;2023-07-30T07:18:16;99664.13;;;28.22;41.54
17607;BME280;69222;52.242;20.980;2023-07-30T07:20:44;99672.44;;;28.85;40.42
17607;BME280;69222;52.242;20.980;2023-07-30T07:23:14;99673.69;;;29.56;39.25
17607;BME280;69222;52.242;20.980;2023-07-30T07:25:43;99668.56;;;30.79;36.20
17607;BME280;69222;52.242;20.980;2023-07-30T07:28:11;99679.56;;;31.45;35.26
17607;BME280;69222;52.242;20.980;2023-07-30T07:30:39;99673.56;;;32.67;32.00
17607;BME280;69222;52.242;20.980;2023-07-30T07:33:07;99662.06;;;32.34;32.53
17607;BME280;69222;52.242;20.980;2023-07-30T07:35:39;99674.16;;;33.02;31.68
17607;BME280;69222;52.242;20.980;2023-07-30T07:38:07;99676.25;;;32.42;32.57
17607;BME280;69222;52.242;20.980;2023-07-30T07:40:39;99671.25;;;30.88;34.90
17607;BME280;69222;52.242;20.980;2023-07-30T07:43:08;99681.22;;;29.05;38.43
17607;BME280;69222;52.242;20.980;2023-07-30T07:45:37;99678.06;;;29.20;39.57
17607;BME280;69222;52.242;20.980;2023-07-30T07:48:05;99673.09;;;30.07;36.27
17607;BME280;69222;52.242;20.980;2023-07-30T07:50:33;99669.81;;;30.14;35.83
17607;BME280;69222;52.242;20.980;2023-07-30T07:53:01;99656.72;;;30.56;36.89
17607;BME280;69222;52.242;20.980;2023-07-30T07:55:30;99659.38;;;32.17;34.52
17607;BME280;69222;52.242;20.980;2023-07-30T07:57:59;99661.72;;;32.04;32.34
17607;BME280;69222;52.242;20.980;2023-07-30T08:00:27;99666.75;;;31.22;34.57
17607;BME280;69222;52.242;20.980;2023-07-30T08:02:55;99672.00;;;31.83;34.41
17607;BME280;69222;52.242;20.980;2023-07-30T08:05:23;99664.97;;;33.12;32.29
17607;BME280;69222;52.242;20.980;2023-07-30T08:07:51;99668.34;;;32.98;31.68
17607;BME280;69222;52.242;20.980;2023-07-30T08:10:19;99679.69;;;32.92;31.55
17607;BME280;69222;52.242;20.980;2023-07-30T08:12:47;99678.41;;;32.55;31.25
17607;BME280;69222;52.242;20.980;2023-07-30T08:15:17;99687.69;;;31.86;32.97
17607;BME280;69222;52.242;20.980;2023-07-30T08:17:45;99673.22;;;32.21;33.12
17607;BME280;69222;52.242;20.980;2023-07-30T08:20:13;99680.22;;;32.14;32.78
17607;BME280;69222;52.242;20.980;2023-07-30T08:22:45;99682.47;;;31.84;33.45
17607;BME280;69222;52.242;20.980;2023-07-30T08:25:15;99686.16;;;31.41;33.69
17607;BME280;69222;52.242;20.980;2023-07-30T08:27:43;99674.88;;;30.35;34.71
17607;BME280;69222;52.242;20.980;2023-07-30T08:30:12;99682.22;;;28.85;37.87
17607;BME280;69222;52.242;20.980;2023-07-30T08:32:41;99684.47;;;27.42;41.47
17607;BME280;69222;52.242;20.980;2023-07-30T08:35:10;99694.97;;;26.71;43.65
17607;BME280;69222;52.242;20.980;2023-07-30T08:37:38;99690.66;;;26.38;43.81
17607;BME280;69222;52.242;20.980;2023-07-30T08:40:08;99701.97;;;26.08;44.87
17607;BME280;69222;52.242;20.980;2023-07-30T08:42:36;99696.22;;;25.92;45.27
17607;BME280;69222;52.242;20.980;2023-07-30T08:45:08;99697.09;;;25.70;45.97
17607;BME280;69222;52.242;20.980;2023-07-30T08:47:39;99701.94;;;25.31;48.23
17607;BME280;69222;52.242;20.980;2023-07-30T08:50:10;99708.78;;;25.34;48.55
17607;BME280;69222;52.242;20.980;2023-07-30T08:52:38;99702.03;;;25.29;47.65
17607;BME280;69222;52.242;20.980;2023-07-30T08:55:10;99696.88;;;25.50;47.93
17607;BME280;69222;52.242;20.980;2023-07-30T08:57:40;99703.56;;;25.88;47.26
17607;BME280;69222;52.242;20.980;2023-07-30T09:00:13;99695.06;;;26.17;46.47
17607;BME280;69222;52.242;20.980;2023-07-30T09:02:44;99694.91;;;26.30;46.05
17607;BME280;69222;52.242;20.980;2023-07-30T09:05:16;99699.81;;;26.34;46.31
17607;BME280;69222;52.242;20.980;2023-07-30T09:07:45;99696.19;;;26.46;45.60
17607;BME280;69222;52.242;20.980;2023-07-30T09:10:14;99704.28;;;26.55;45.79
17607;BME280;69222;52.242;20.980;2023-07-30T09:12:42;99698.19;;;26.75;45.87
17607;BME280;69222;52.242;20.980;2023-07-30T09:15:13;99700.69;;;26.97;44.75
17607;BME280;69222;52.242;20.980;2023-07-30T09:17:41;99713.19;;;26.54;45.46
17607;BME280;69222;52.242;20.980;2023-07-30T09:20:10;99705.91;;;26.46;45.81
17607;BME280;69222;52.242;20.980;2023-07-30T09:22:39;99706.63;;;26.16;46.30
17607;BME280;69222;52.242;20.980;2023-07-30T09:25:08;99708.28;;;26.17;46.95
17607;BME280;69222;52.242;20.980;2023-07-30T09:27:37;99721.66;;;26.36;45.97
17607;BME280;69222;52.242;20.980;2023-07-30T09:30:06;99713.13;;;26.44;45.34
17607;BME280;69222;52.242;20.980;2023-07-30T09:32:35;99720.56;;;26.71;44.99
17607;BME280;69222;52.242;20.980;2023-07-30T09:35:07;99719.25;;;26.86;44.47
17607;BME280;69222;52.242;20.980;2023-07-30T09:37:41;99716.91;;;26.62;44.44
17607;BME280;69222;52.242;20.980;2023-07-30T09:40:10;99721.78;;;26.02;46.77
17607;BME280;69222;52.242;20.980;2023-07-30T09:42:42;99717.34;;;26.88;45.96
17607;BME280;69222;52.242;20.980;2023-07-30T09:45:17;99709.06;;;28.72;41.04
17607;BME280;69222;52.242;20.980;2023-07-30T09:47:49;99717.81;;;29.94;37.92
17607;BME280;69222;52.242;20.980;2023-07-30T09:50:17;99712.97;;;31.13;35.50
17607;BME280;69222;52.242;20.980;2023-07-30T09:52:46;99706.19;;;31.45;34.51
17607;BME280;69222;52.242;20.980;2023-07-30T09:55:15;99716.34;;;30.71;36.08
17607;BME280;69222;52.242;20.980;2023-07-30T09:57:45;99721.81;;;29.80;37.30
17607;BME280;69222;52.242;20.980;2023-07-30T10:00:13;99721.88;;;29.33;39.48
17607;BME280;69222;52.242;20.980;2023-07-30T10:02:45;99719.69;;;29.84;38.44
17607;BME280;69222;52.242;20.980;2023-07-30T10:05:15;99718.19;;;29.99;37.80
17607;BME280;69222;52.242;20.980;2023-07-30T10:07:49;99701.28;;;31.06;35.41
17607;BME280;69222;52.242;20.980;2023-07-30T10:10:19;99703.22;;;32.23;33.43
17607;BME280;69222;52.242;20.980;2023-07-30T10:12:48;99698.50;;;33.62;30.75
17607;BME280;69222;52.242;20.980;2023-07-30T10:15:19;99698.50;;;34.77;29.34
17607;BME280;69222;52.242;20.980;2023-07-30T10:17:50;99694.19;;;34.91;28.44
17607;BME280;69222;52.242;20.980;2023-07-30T10:20:23;99699.00;;;34.35;28.92
17607;BME280;69222;52.242;20.980;2023-07-30T10:22:55;99700.72;;;32.13;32.48
17607;BME280;69222;52.242;20.980;2023-07-30T10:25:28;99700.81;;;30.05;36.06
17607;BME280;69222;52.242;20.980;2023-07-30T10:27:58;99700.53;;;29.25;38.62
17607;BME280;69222;52.242;20.980;2023-07-30T10:30:31;99686.47;;;29.98;37.24
17607;BME280;69222;52.242;20.980;2023-07-30T10:33:02;99700.44;;;30.36;36.54
17607;BME280;69222;52.242;20.980;2023-07-30T10:35:39;99688.69;;;31.93;33.93
17607;BME280;69222;52.242;20.980;2023-07-30T10:38:16;99689.53;;;33.47;31.57
17607;BME280;69222;52.242;20.980;2023-07-30T10:41:02;99689.88;;;33.75;29.25
17607;BME280;69222;52.242;20.980;2023-07-30T10:43:30;99687.72;;;33.48;30.21
17607;BME280;69222;52.242;20.980;2023-07-30T10:45:58;99692.88;;;33.49;29.50
17607;BME280;69222;52.242;20.980;2023-07-30T10:48:31;99684.88;;;33.41;29.29
17607;BME280;69222;52.242;20.980;2023-07-30T10:51:00;99678.69;;;33.40;29.63
17607;BME280;69222;52.242;20.980;2023-07-30T10:53:31;99686.16;;;33.53;28.98
17607;BME280;69222;52.242;20.980;2023-07-30T10:56:00;99674.75;;;33.67;28.75
17607;BME280;69222;52.242;20.980;2023-07-30T10:58:30;99667.66;;;34.06;28.68
17607;BME280;69222;52.242;20.980;2023-07-30T11:01:00;99666.06;;;34.57;28.16
17607;BME280;69222;52.242;20.980;2023-07-30T11:03:29;99663.03;;;34.60;27.76
17607;BME280;69222;52.242;20.980;2023-07-30T11:05:58;99662.06;;;34.16;28.58
17607;BME280;69222;52.242;20.980;2023-07-30T11:08:36;99664.78;;;33.84;29.45
17607;BME280;69222;52.242;20.980;2023-07-30T11:11:06;99663.16;;;33.52;29.78
17607;BME280;69222;52.242;20.980;2023-07-30T11:13:35;99667.16;;;32.84;31.21
17607;BME280;69222;52.242;20.980;2023-07-30T11:16:06;99679.91;;;31.50;33.61
17607;BME280;69222;52.242;20.980;2023-07-30T11:18:35;99667.44;;;30.64;35.56
17607;BME280;69222;52.242;20.980;2023-07-30T11:21:05;99666.00;;;31.04;35.40
17607;BME280;69222;52.242;20.980;2023-07-30T11:23:36;99662.88;;;32.02;34.04
17607;BME280;69222;52.242;20.980;2023-07-30T11:26:07;99656.88;;;32.81;31.39
17607;BME280;69222;52.242;20.980;2023-07-30T11:28:37;99657.00;;;33.75;30.74
17607;BME280;69222;52.242;20.980;2023-07-30T11:31:08;99656.28;;;34.27;28.88
17607;BME280;69222;52.242;20.980;2023-07-30T11:33:38;99654.47;;;34.04;28.34
17607;BME280;69222;52.242;20.980;2023-07-30T11:36:08;99654.44;;;33.81;28.53
17607;BME280;69222;52.242;20.980;2023-07-30T11:38:39;99656.22;;;33.27;28.26
17607;BME280;69222;52.242;20.980;2023-07-30T11:41:08;99644.44;;;32.41;29.96
17607;BME280;69222;52.242;20.980;2023-07-30T11:43:38;99647.91;;;31.42;31.42
17607;BME280;69222;52.242;20.980;2023-07-30T11:46:13;99648.13;;;30.18;34.24
17607;BME280;69222;52.242;20.980;2023-07-30T11:48:43;99660.00;;;29.05;36.79
17607;BME280;69222;52.242;20.980;2023-07-30T11:51:19;99653.97;;;28.17;38.03
17607;BME280;69222;52.242;20.980;2023-07-30T11:53:50;99660.56;;;27.63;39.12
17607;BME280;69222;52.242;20.980;2023-07-30T11:56:20;99659.34;;;27.27;39.99
17607;BME280;69222;52.242;20.980;2023-07-30T11:58:51;99661.50;;;26.82;41.49
17607;BME280;69222;52.242;20.980;2023-07-30T12:01:19;99664.28;;;26.59;42.51
17607;BME280;69222;52.242;20.980;2023-07-30T12:03:47;99665.88;;;26.50;43.08
17607;BME280;69222;52.242;20.980;2023-07-30T12:06:16;99670.75;;;26.34;43.05
17607;BME280;69222;52.242;20.980;2023-07-30T12:08:44;99661.81;;;26.25;43.76
17607;BME280;69222;52.242;20.980;2023-07-30T12:11:13;99666.50;;;26.22;44.10
17607;BME280;69222;52.242;20.980;2023-07-30T12:13:45;99661.34;;;26.20;44.56
17607;BME280;69222;52.242;20.980;2023-07-30T12:16:14;99668.47;;;26.09;44.54
17607;BME280;69222;52.242;20.980;2023-07-30T12:18:46;99666.84;;;25.96;44.03
17607;BME280;69222;52.242;20.980;2023-07-30T12:21:14;99670.69;;;25.92;44.42
17607;BME280;69222;52.242;20.980;2023-07-30T12:23:42;99671.59;;;26.02;44.86
17607;BME280;69222;52.242;20.980;2023-07-30T12:26:10;99667.97;;;26.15;44.90
17607;BME280;69222;52.242;20.980;2023-07-30T12:28:39;99669.16;;;26.22;44.41
17607;BME280;69222;52.242;20.980;2023-07-30T12:31:07;99657.94;;;26.30;44.57
17607;BME280;69222;52.242;20.980;2023-07-30T12:33:36;99660.13;;;26.45;44.68
17607;BME280;69222;52.242;20.980;2023-07-30T12:36:04;99656.13;;;26.62;43.33
17607;BME280;69222;52.242;20.980;2023-07-30T12:38:32;99649.19;;;26.71;42.92
17607;BME280;69222;52.242;20.980;2023-07-30T12:41:01;99649.81;;;26.84;42.76
17607;BME280;69222;52.242;20.980;2023-07-30T12:43:29;99648.41;;;26.80;43.28
17607;BME280;69222;52.242;20.980;2023-07-30T12:45:59;99649.94;;;26.83;43.90
17607;BME280;69222;52.242;20.980;2023-07-30T12:48:27;99655.81;;;26.86;43.88
17607;BME280;69222;52.242;20.980;2023-07-30T12:50:55;99651.94;;;26.90;43.47
17607;BME280;69222;52.242;20.980;2023-07-30T12:53:24;99643.84;;;26.82;43.22
17607;BME280;69222;52.242;20.980;2023-07-30T12:55:53;99636.66;;;26.73;43.42
17607;BME280;69222;52.242;20.980;2023-07-30T12:58:21;99646.97;;;26.66;43.84